createdAt,value
2018-01-27T00:00:33.480Z,5.63
2018-01-27T00:02:00.670Z,5.62
2018-01-27T00:03:27.844Z,5.67
2018-01-27T00:04:55.944Z,5.71
2018-01-27T00:06:21.721Z,5.73
2018-01-27T00:07:48.839Z,5.76
2018-01-27T00:09:16.117Z,5.77
2018-01-27T00:10:43.046Z,5.78
2018-01-27T00:12:11.384Z,5.84
2018-01-27T00:13:38.627Z,5.88
2018-01-27T00:15:05.890Z,5.93
2018-01-27T00:16:32.044Z,5.99
2018-01-27T00:17:59.240Z,6.04
2018-01-27T00:19:26.395Z,6.10
2018-01-27T00:20:53.669Z,6.14
2018-01-27T00:22:20.833Z,6.18
2018-01-27T00:23:49.061Z,6.21
2018-01-27T00:25:15.316Z,6.25
2018-01-27T00:26:42.349Z,6.27
2018-01-27T00:28:09.708Z,6.27
2018-01-27T00:29:36.928Z,6.25
2018-01-27T00:31:04.129Z,6.18
2018-01-27T00:32:31.073Z,6.19
2018-01-27T00:33:59.337Z,6.17
2018-01-27T00:35:25.514Z,6.16
2018-01-27T00:36:52.804Z,6.19
2018-01-27T00:38:21.167Z,6.19
2018-01-27T00:39:48.426Z,6.16
2018-01-27T00:41:14.736Z,6.12
2018-01-27T00:42:42.793Z,6.10
2018-01-27T00:44:08.809Z,6.13
2018-01-27T00:45:36.020Z,6.17
2018-01-27T00:47:03.266Z,6.22
2018-01-27T00:48:31.343Z,6.26
2018-01-27T00:49:57.482Z,6.29
2018-01-27T00:51:25.611Z,6.28
2018-01-27T00:52:51.730Z,6.29
2018-01-27T00:54:20.143Z,6.27
2018-01-27T00:55:47.441Z,6.18
2018-01-27T00:57:13.432Z,6.17
2018-01-27T00:58:40.634Z,6.16
2018-01-27T01:00:07.997Z,6.18
2018-01-27T01:01:35.066Z,6.21
2018-01-27T01:03:03.039Z,6.24
2018-01-27T01:04:29.208Z,6.27
2018-01-27T01:05:56.482Z,6.30
2018-01-27T01:07:23.754Z,6.30
2018-01-27T01:08:50.837Z,6.26
2018-01-27T01:10:18.179Z,6.27
2018-01-27T01:11:45.412Z,6.23
2018-01-27T01:13:13.674Z,6.26
2018-01-27T01:14:41.005Z,6.29
2018-01-27T01:16:07.079Z,6.33
2018-01-27T01:17:35.139Z,6.36
2018-01-27T01:19:01.231Z,6.38
2018-01-27T01:20:28.309Z,6.40
2018-01-27T01:21:56.692Z,6.42
2018-01-27T01:23:23.923Z,6.39
2018-01-27T01:24:51.139Z,6.41
2018-01-27T01:26:17.403Z,6.43
2018-01-27T01:27:44.666Z,6.43
2018-01-27T01:29:11.832Z,6.42
2018-01-27T01:30:39.054Z,6.34
2018-01-27T01:32:06.348Z,6.29
2018-01-27T01:33:33.620Z,6.25
2018-01-27T01:35:01.798Z,6.24
2018-01-27T01:36:31.078Z,6.24
2018-01-27T01:37:55.305Z,6.28
2018-01-27T01:39:22.545Z,6.31
2018-01-27T01:40:50.678Z,6.31
2018-01-27T01:42:16.705Z,6.26
2018-01-27T01:43:44.002Z,6.19
2018-01-27T01:45:11.322Z,6.14
2018-01-27T01:46:38.670Z,6.13
2018-01-27T01:48:05.871Z,6.15
2018-01-27T01:49:34.152Z,6.18
2018-01-27T01:51:00.131Z,6.23
2018-01-27T01:52:28.623Z,6.26
2018-01-27T01:53:54.746Z,6.30
2018-01-27T01:55:23.038Z,6.34
2018-01-27T01:56:50.138Z,6.38
2018-01-27T01:58:16.436Z,6.36
2018-01-27T01:59:43.982Z,6.32
2018-01-27T02:01:11.341Z,6.26
2018-01-27T02:02:39.735Z,6.20
2018-01-27T02:04:06.022Z,6.15
2018-01-27T02:05:33.157Z,6.18
2018-01-27T02:07:00.035Z,6.16
2018-01-27T02:08:27.183Z,6.13
2018-01-27T02:09:54.556Z,6.16
2018-01-27T02:11:21.984Z,6.19
2018-01-27T02:12:49.429Z,6.20
2018-01-27T02:14:17.581Z,6.22
2018-01-27T02:15:43.686Z,6.25
2018-01-27T02:17:10.903Z,6.26
2018-01-27T02:18:37.979Z,6.30
2018-01-27T02:20:06.295Z,6.33
2018-01-27T02:21:32.318Z,6.31
2018-01-27T02:22:59.699Z,6.28
2018-01-27T02:24:26.986Z,6.25
2018-01-27T02:25:54.067Z,6.28
2018-01-27T02:27:21.309Z,6.30
2018-01-27T02:28:49.601Z,6.33
2018-01-27T02:30:15.884Z,6.35
2018-01-27T02:31:44.085Z,6.34
2018-01-27T02:33:10.461Z,6.33
2018-01-27T02:34:37.755Z,6.36
2018-01-27T02:36:05.891Z,6.39
2018-01-27T02:37:31.891Z,6.42
2018-01-27T02:38:59.050Z,6.45
2018-01-27T02:40:27.370Z,6.44
2018-01-27T02:41:54.292Z,6.44
2018-01-27T02:43:21.682Z,6.45
2018-01-27T02:44:47.652Z,6.46
2018-01-27T02:46:15.049Z,6.47
2018-01-27T02:47:42.429Z,6.49
2018-01-27T02:49:09.426Z,6.49
2018-01-27T02:50:37.736Z,6.49
2018-01-27T02:52:05.001Z,6.49
2018-01-27T02:53:31.985Z,6.51
2018-01-27T02:54:58.335Z,6.52
2018-01-27T02:56:25.760Z,6.54
2018-01-27T02:57:52.991Z,6.55
2018-01-27T02:59:21.294Z,6.57
2018-01-27T03:00:48.701Z,6.56
2018-01-27T03:02:15.177Z,6.54
2018-01-27T03:03:42.448Z,6.55
2018-01-27T03:05:10.711Z,6.56
2018-01-27T03:06:38.062Z,6.57
2018-01-27T03:08:05.292Z,6.57
2018-01-27T03:09:31.445Z,6.55
2018-01-27T03:10:58.805Z,6.52
2018-01-27T03:12:26.114Z,6.49
2018-01-27T03:13:54.289Z,6.42
2018-01-27T03:15:20.627Z,6.41
2018-01-27T03:16:47.920Z,6.42
2018-01-27T03:18:15.313Z,6.35
2018-01-27T03:19:42.584Z,6.29
2018-01-27T03:21:10.899Z,6.29
2018-01-27T03:22:37.088Z,6.29
2018-01-27T03:24:04.139Z,6.28
2018-01-27T03:25:31.225Z,6.31
2018-01-27T03:26:58.665Z,6.31
2018-01-27T03:28:26.043Z,6.34
2018-01-27T03:29:53.326Z,6.37
2018-01-27T03:31:20.346Z,6.40
2018-01-27T03:32:48.765Z,6.42
2018-01-27T03:34:14.916Z,6.45
2018-01-27T03:35:43.215Z,6.47
2018-01-27T03:37:09.426Z,6.49
2018-01-27T03:38:36.701Z,6.51
2018-01-27T03:40:03.866Z,6.52
2018-01-27T03:41:31.833Z,6.53
2018-01-27T03:42:58.123Z,6.55
2018-01-27T03:44:25.369Z,6.56
2018-01-27T03:45:52.821Z,6.57
2018-01-27T03:47:19.776Z,6.55
2018-01-27T03:48:46.862Z,6.51
2018-01-27T03:50:14.199Z,6.50
2018-01-27T03:51:42.440Z,6.46
2018-01-27T03:53:08.833Z,6.38
2018-01-27T03:54:35.940Z,6.34
2018-01-27T03:56:04.158Z,6.27
2018-01-27T03:57:30.086Z,6.23
2018-01-27T03:58:57.332Z,6.21
2018-01-27T04:00:25.632Z,6.14
2018-01-27T04:01:52.211Z,6.07
2018-01-27T04:03:20.717Z,6.04
2018-01-27T04:04:46.902Z,5.95
2018-01-27T04:06:13.970Z,5.90
2018-01-27T04:07:41.293Z,5.83
2018-01-27T04:09:08.651Z,5.80
2018-01-27T04:10:36.946Z,5.77
2018-01-27T04:12:03.080Z,5.72
2018-01-27T04:13:31.367Z,5.70
2018-01-27T04:14:57.568Z,5.66
2018-01-27T04:16:24.667Z,5.62
2018-01-27T04:17:52.003Z,5.59
2018-01-27T04:19:19.205Z,5.58
2018-01-27T04:20:46.563Z,5.56
2018-01-27T04:22:14.820Z,5.55
2018-01-27T04:23:41.136Z,5.56
2018-01-27T04:25:09.457Z,5.56
2018-01-27T04:26:35.331Z,5.61
2018-01-27T04:28:02.522Z,5.62
2018-01-27T04:29:29.816Z,5.65
2018-01-27T04:30:56.830Z,5.68
2018-01-27T04:32:23.991Z,5.64
2018-01-27T04:33:52.311Z,5.67
2018-01-27T04:35:18.578Z,5.71
2018-01-27T04:36:46.836Z,5.78
2018-01-27T04:38:13.104Z,5.83
2018-01-27T04:39:40.324Z,5.88
2018-01-27T04:41:07.667Z,5.93
2018-01-27T04:42:36.060Z,5.97
2018-01-27T04:44:02.172Z,5.96
2018-01-27T04:45:29.600Z,5.92
2018-01-27T04:46:57.562Z,5.91
2018-01-27T04:48:23.885Z,5.88
2018-01-27T04:49:51.166Z,5.88
2018-01-27T04:51:18.289Z,5.88
2018-01-27T04:52:45.558Z,5.91
2018-01-27T04:54:12.896Z,5.95
2018-01-27T04:55:39.907Z,5.94
2018-01-27T04:57:07.138Z,5.91
2018-01-27T04:58:34.410Z,5.90
2018-01-27T05:00:01.387Z,5.86
2018-01-27T05:01:28.723Z,5.89
2018-01-27T05:02:57.145Z,5.88
2018-01-27T05:04:23.403Z,5.82
2018-01-27T05:05:51.743Z,5.76
2018-01-27T05:07:17.967Z,5.80
2018-01-27T05:08:45.146Z,5.80
2018-01-27T05:10:12.503Z,5.78
2018-01-27T05:11:40.634Z,5.79
2018-01-27T05:13:07.006Z,5.78
2018-01-27T05:14:35.140Z,5.75
2018-01-27T05:16:01.109Z,5.79
2018-01-27T05:17:28.172Z,5.85
2018-01-27T05:18:56.487Z,5.91
2018-01-27T05:20:22.829Z,5.95
2018-01-27T05:21:50.851Z,6.00
2018-01-27T05:23:17.115Z,6.03
2018-01-27T05:24:44.327Z,6.07
2018-01-27T05:26:12.338Z,6.09
2018-01-27T05:27:38.407Z,6.09
2018-01-27T05:29:05.602Z,6.02
2018-01-27T05:30:33.784Z,5.96
2018-01-27T05:32:00.034Z,5.93
2018-01-27T05:33:27.148Z,5.93
2018-01-27T05:34:55.172Z,5.91
2018-01-27T05:36:22.213Z,5.92
2018-01-27T05:37:48.579Z,5.94
2018-01-27T05:39:15.766Z,5.93
2018-01-27T05:40:43.038Z,5.89
2018-01-27T05:42:11.226Z,5.91
2018-01-27T05:43:38.235Z,5.92
2018-01-27T05:45:04.432Z,5.94
2018-01-27T05:46:31.576Z,5.91
2018-01-27T05:47:58.963Z,5.92
2018-01-27T05:49:27.190Z,5.91
2018-01-27T05:50:54.593Z,5.84
2018-01-27T05:52:20.822Z,5.84
2018-01-27T05:53:47.776Z,5.79
2018-01-27T05:55:14.909Z,5.76
2018-01-27T05:56:43.124Z,5.78
2018-01-27T05:58:10.203Z,5.77
2018-01-27T05:59:36.513Z,5.71
2018-01-27T06:01:03.755Z,5.69
2018-01-27T06:02:31.731Z,5.66
2018-01-27T06:03:57.817Z,5.62
2018-01-27T06:05:25.178Z,5.63
2018-01-27T06:06:52.563Z,5.64
2018-01-27T06:08:19.728Z,5.66
2018-01-27T06:09:46.544Z,5.70
2018-01-27T06:11:14.814Z,5.72
2018-01-27T06:12:40.955Z,5.75
2018-01-27T06:14:08.162Z,5.78
2018-01-27T06:15:35.354Z,5.80
2018-01-27T06:17:03.504Z,5.79
2018-01-27T06:18:29.795Z,5.82
2018-01-27T06:19:57.059Z,5.85
2018-01-27T06:21:24.422Z,5.89
2018-01-27T06:22:51.292Z,5.92
2018-01-27T06:24:19.486Z,5.95
2018-01-27T06:25:45.872Z,5.92
2018-01-27T06:27:13.114Z,5.93
2018-01-27T06:28:41.124Z,5.94
2018-01-27T06:30:08.409Z,5.96
2018-01-27T06:31:35.652Z,5.98
2018-01-27T06:33:01.852Z,6.00
2018-01-27T06:34:28.759Z,6.01
2018-01-27T06:35:57.021Z,6.00
2018-01-27T06:37:22.953Z,6.00
2018-01-27T06:38:50.128Z,5.97
2018-01-27T06:40:17.481Z,5.98
2018-01-27T06:41:44.702Z,6.00
2018-01-27T06:43:12.601Z,6.00
2018-01-27T06:44:38.631Z,5.95
2018-01-27T06:46:06.843Z,5.88
2018-01-27T06:47:34.154Z,5.82
2018-01-27T06:49:00.010Z,5.82
2018-01-27T06:50:27.095Z,5.81
2018-01-27T06:51:54.485Z,5.83
2018-01-27T06:53:21.602Z,5.87
2018-01-27T06:54:50.062Z,5.89
2018-01-27T06:56:16.161Z,5.91
2018-01-27T06:57:43.306Z,5.94
2018-01-27T06:59:10.567Z,5.86
2018-01-27T07:00:37.823Z,5.81
2018-01-27T07:02:05.947Z,5.84
2018-01-27T07:03:31.973Z,5.81
2018-01-27T07:04:59.247Z,5.78
2018-01-27T07:06:26.379Z,5.77
2018-01-27T07:07:53.415Z,5.80
2018-01-27T07:09:20.796Z,5.82
2018-01-27T07:10:48.020Z,5.85
2018-01-27T07:12:16.331Z,5.88
2018-01-27T07:13:42.562Z,5.90
2018-01-27T07:15:09.920Z,5.91
2018-01-27T07:16:36.648Z,5.94
2018-01-27T07:18:03.865Z,5.94
2018-01-27T07:19:31.047Z,5.96
2018-01-27T07:20:59.285Z,5.92
2018-01-27T07:22:25.681Z,5.93
2018-01-27T07:23:52.805Z,5.94
2018-01-27T07:25:20.908Z,5.95
2018-01-27T07:26:48.255Z,5.96
2018-01-27T07:28:14.599Z,5.92
2018-01-27T07:29:41.467Z,5.92
2018-01-27T07:31:09.739Z,5.92
2018-01-27T07:32:36.983Z,5.93
2018-01-27T07:34:03.024Z,5.95
2018-01-27T07:35:31.567Z,5.97
2018-01-27T07:36:58.974Z,6.00
2018-01-27T07:38:25.278Z,5.96
2018-01-27T07:39:53.602Z,5.91
2018-01-27T07:41:23.044Z,5.90
2018-01-27T07:42:47.312Z,5.88
2018-01-27T07:44:14.620Z,5.85
2018-01-27T07:45:42.916Z,5.84
2018-01-27T07:47:09.115Z,5.84
2018-01-27T07:48:36.463Z,5.89
2018-01-27T07:50:03.509Z,5.88
2018-01-27T07:51:30.591Z,5.89
2018-01-27T07:52:57.503Z,5.93
2018-01-27T07:54:24.848Z,5.96
2018-01-27T07:55:52.101Z,5.92
2018-01-27T07:57:20.019Z,5.92
2018-01-27T07:58:46.286Z,5.89
2018-01-27T08:00:13.133Z,5.88
2018-01-27T08:01:40.491Z,5.91
2018-01-27T08:03:08.698Z,5.94
2018-01-27T08:04:34.763Z,5.92
2018-01-27T08:06:02.027Z,5.95
2018-01-27T08:07:30.319Z,5.96
2018-01-27T08:08:56.683Z,5.98
2018-01-27T08:10:23.931Z,6.01
2018-01-27T08:11:51.290Z,6.04
2018-01-27T08:13:18.547Z,6.04
2018-01-27T08:14:46.778Z,6.08
2018-01-27T08:16:14.121Z,6.11
2018-01-27T08:17:40.428Z,6.13
2018-01-27T08:19:07.707Z,6.15
2018-01-27T08:20:35.970Z,6.16
2018-01-27T08:22:03.036Z,6.18
2018-01-27T08:23:29.294Z,6.19
2018-01-27T08:24:56.581Z,6.21
2018-01-27T08:26:23.840Z,6.22
2018-01-27T08:27:51.009Z,6.24
2018-01-27T08:29:19.343Z,6.22
2018-01-27T08:30:46.677Z,6.23
2018-01-27T08:32:12.822Z,6.24
2018-01-27T08:33:40.255Z,6.26
2018-01-27T08:35:07.324Z,6.27
2018-01-27T08:36:34.253Z,6.28
2018-01-27T08:38:01.366Z,6.30
2018-01-27T08:39:28.745Z,6.31
2018-01-27T08:40:56.147Z,6.33
2018-01-27T08:42:23.364Z,6.34
2018-01-27T08:43:50.817Z,6.34
2018-01-27T08:45:18.148Z,6.36
2018-01-27T08:46:45.393Z,6.37
2018-01-27T08:48:13.502Z,6.39
2018-01-27T08:49:40.825Z,6.40
2018-01-27T08:51:07.007Z,6.41
2018-01-27T08:52:35.290Z,6.43
2018-01-27T08:54:01.351Z,6.44
2018-01-27T08:55:28.600Z,6.46
2018-01-27T08:56:56.821Z,6.46
2018-01-27T08:58:24.183Z,6.47
2018-01-27T08:59:50.254Z,6.48
2018-01-27T09:01:17.288Z,6.49
2018-01-27T09:02:44.681Z,6.49
2018-01-27T09:04:11.727Z,6.49
2018-01-27T09:05:39.063Z,6.48
2018-01-27T09:07:07.311Z,6.49
2018-01-27T09:08:34.556Z,6.50
2018-01-27T09:10:00.502Z,6.50
2018-01-27T09:11:27.692Z,6.50
2018-01-27T09:12:55.118Z,6.51
2018-01-27T09:14:23.313Z,6.52
2018-01-27T09:15:50.627Z,6.53
2018-01-27T09:17:17.023Z,6.52
2018-01-27T09:18:44.202Z,6.51
2018-01-27T09:20:11.446Z,6.50
2018-01-27T09:21:39.766Z,6.49
2018-01-27T09:23:07.012Z,6.50
2018-01-27T09:24:34.347Z,6.50
2018-01-27T09:26:01.474Z,6.50
2018-01-27T09:27:27.914Z,6.52
2018-01-27T09:28:55.962Z,6.54
2018-01-27T09:30:22.209Z,6.56
2018-01-27T09:31:49.447Z,6.58
2018-01-27T09:33:17.828Z,6.60
2018-01-27T09:34:45.248Z,6.61
2018-01-27T09:36:11.398Z,6.64
2018-01-27T09:37:38.609Z,6.66
2018-01-27T09:39:05.913Z,6.68
2018-01-27T09:40:33.213Z,6.69
2018-01-27T09:42:00.123Z,6.72
2018-01-27T09:43:28.443Z,6.74
2018-01-27T09:44:54.731Z,6.76
2018-01-27T09:46:21.967Z,6.72
2018-01-27T09:47:49.317Z,6.72
2018-01-27T09:49:16.473Z,6.75
2018-01-27T09:50:43.822Z,6.75
2018-01-27T09:52:12.164Z,6.76
2018-01-27T09:53:38.423Z,6.78
2018-01-27T09:55:05.700Z,6.76
2018-01-27T09:56:33.846Z,6.77
2018-01-27T09:58:00.338Z,6.78
2018-01-27T09:59:27.486Z,6.79
2018-01-27T10:00:54.575Z,6.80
2018-01-27T10:02:22.795Z,6.81
2018-01-27T10:03:48.746Z,6.81
2018-01-27T10:05:16.040Z,6.80
2018-01-27T10:06:44.538Z,6.80
2018-01-27T10:08:10.754Z,6.81
2018-01-27T10:09:38.033Z,6.81
2018-01-27T10:11:06.159Z,6.75
2018-01-27T10:12:32.213Z,6.75
2018-01-27T10:13:59.596Z,6.76
2018-01-27T10:15:27.926Z,6.77
2018-01-27T10:16:54.262Z,6.78
2018-01-27T10:18:21.503Z,6.78
2018-01-27T10:19:48.633Z,6.79
2018-01-27T10:21:16.065Z,6.81
2018-01-27T10:22:44.259Z,6.76
2018-01-27T10:24:11.599Z,6.72
2018-01-27T10:25:37.961Z,6.73
2018-01-27T10:27:06.158Z,6.73
2018-01-27T10:28:33.166Z,6.73
2018-01-27T10:29:59.341Z,6.76
2018-01-27T10:31:26.584Z,6.77
2018-01-27T10:32:54.750Z,6.72
2018-01-27T10:34:21.142Z,6.69
2018-01-27T10:35:48.270Z,6.70
2018-01-27T10:37:15.550Z,6.71
2018-01-27T10:38:42.969Z,6.73
2018-01-27T10:40:11.096Z,6.76
2018-01-27T10:41:38.360Z,6.78
2018-01-27T10:43:05.622Z,6.79
2018-01-27T10:44:32.876Z,6.82
2018-01-27T10:46:00.275Z,6.81
2018-01-27T10:47:26.470Z,6.82
2018-01-27T10:48:53.905Z,6.80
2018-01-27T10:50:21.232Z,6.72
2018-01-27T10:51:48.485Z,6.72
2018-01-27T10:53:15.871Z,6.75
2018-01-27T10:54:44.257Z,6.73
2018-01-27T10:56:10.446Z,6.73
2018-01-27T10:57:37.905Z,6.75
2018-01-27T10:59:05.964Z,6.76
2018-01-27T11:00:32.136Z,6.77
2018-01-27T11:01:59.338Z,6.79
2018-01-27T11:03:26.653Z,6.82
2018-01-27T11:04:54.941Z,6.85
2018-01-27T11:06:21.290Z,6.89
2018-01-27T11:07:48.669Z,6.91
2018-01-27T11:09:17.021Z,6.92
2018-01-27T11:10:43.261Z,6.94
2018-01-27T11:12:10.507Z,6.96
2018-01-27T11:13:38.791Z,6.98
2018-01-27T11:15:04.986Z,6.98
2018-01-27T11:16:33.183Z,6.99
2018-01-27T11:18:00.617Z,6.97
2018-01-27T11:19:27.844Z,6.93
2018-01-27T11:20:54.214Z,6.88
2018-01-27T11:22:21.375Z,6.87
2018-01-27T11:23:49.587Z,6.89
2018-01-27T11:25:15.929Z,6.87
2018-01-27T11:26:43.130Z,6.91
2018-01-27T11:28:11.386Z,6.95
2018-01-27T11:29:37.555Z,6.99
2018-01-27T11:31:04.777Z,7.02
2018-01-27T11:32:31.931Z,7.05
2018-01-27T11:33:59.205Z,7.06
2018-01-27T11:35:26.653Z,7.08
2018-01-27T11:36:54.035Z,7.09
2018-01-27T11:38:22.149Z,7.09
2018-01-27T11:39:49.532Z,7.08
2018-01-27T11:41:16.731Z,7.09
2018-01-27T11:42:43.530Z,7.10
2018-01-27T11:44:10.826Z,7.10
2018-01-27T11:45:37.696Z,7.10
2018-01-27T11:47:03.944Z,7.11
2018-01-27T11:48:31.006Z,7.13
2018-01-27T11:49:58.333Z,7.13
2018-01-27T11:51:26.326Z,7.13
2018-01-27T11:52:52.658Z,7.13
2018-01-27T11:54:19.996Z,7.14
2018-01-27T11:55:48.021Z,7.16
2018-01-27T11:57:14.069Z,7.18
2018-01-27T11:58:42.375Z,7.18
2018-01-27T12:00:08.785Z,7.19
2018-01-27T12:01:35.987Z,7.21
2018-01-27T12:03:03.293Z,7.21
2018-01-27T12:04:30.339Z,7.22
2018-01-27T12:05:58.549Z,7.21
2018-01-27T12:07:24.771Z,7.20
2018-01-27T12:08:52.676Z,7.20
2018-01-27T12:10:18.997Z,7.21
2018-01-27T12:11:46.976Z,7.22
2018-01-27T12:13:13.910Z,7.22
2018-01-27T12:14:40.112Z,7.24
2018-01-27T12:16:07.329Z,7.25
2018-01-27T12:17:34.368Z,7.26
2018-01-27T12:19:01.603Z,7.25
2018-01-27T12:20:28.927Z,7.26
2018-01-27T12:21:56.973Z,7.27
2018-01-27T12:23:24.409Z,7.27
2018-01-27T12:24:50.643Z,7.29
2018-01-27T12:26:17.812Z,7.29
2018-01-27T12:27:45.065Z,7.24
2018-01-27T12:29:13.309Z,7.20
2018-01-27T12:30:39.535Z,7.16
2018-01-27T12:32:07.791Z,7.18
2018-01-27T12:33:34.062Z,7.20
2018-01-27T12:35:02.122Z,7.23
2018-01-27T12:36:28.429Z,7.25
2018-01-27T12:37:55.770Z,7.26
2018-01-27T12:39:24.149Z,7.28
2018-01-27T12:40:51.521Z,7.29
2018-01-27T12:42:17.952Z,7.30
2018-01-27T12:43:46.069Z,7.33
2018-01-27T12:45:12.406Z,7.35
2018-01-27T12:46:39.285Z,7.37
2018-01-27T12:48:07.683Z,7.39
2018-01-27T12:49:33.681Z,7.40
2018-01-27T12:51:00.717Z,7.38
2018-01-27T12:52:27.912Z,7.37
2018-01-27T12:53:55.225Z,7.37
2018-01-27T12:55:22.471Z,7.38
2018-01-27T12:56:49.900Z,7.42
2018-01-27T12:58:16.982Z,7.47
2018-01-27T12:59:44.202Z,7.51
2018-01-27T13:01:11.532Z,7.56
2018-01-27T13:02:39.635Z,7.62
2018-01-27T13:04:05.948Z,7.65
2018-01-27T13:05:34.216Z,7.68
2018-01-27T13:07:01.569Z,7.71
2018-01-27T13:08:28.020Z,7.73
2018-01-27T13:09:56.248Z,7.74
2018-01-27T13:11:22.646Z,7.76
2018-01-27T13:12:50.061Z,7.77
2018-01-27T13:14:17.399Z,7.79
2018-01-27T13:15:44.558Z,7.80
2018-01-27T13:17:11.652Z,7.79
2018-01-27T13:18:39.031Z,7.79
2018-01-27T13:20:06.049Z,7.79
2018-01-27T13:21:33.352Z,7.80
2018-01-27T13:23:01.316Z,7.80
2018-01-27T13:24:27.590Z,7.77
2018-01-27T13:25:54.808Z,7.75
2018-01-27T13:27:23.087Z,7.75
2018-01-27T13:28:50.211Z,7.78
2018-01-27T13:30:16.522Z,7.82
2018-01-27T13:31:43.851Z,7.84
2018-01-27T13:33:11.013Z,7.85
2018-01-27T13:34:38.317Z,7.84
2018-01-27T13:36:06.646Z,7.82
2018-01-27T13:37:32.622Z,7.81
2018-01-27T13:38:59.905Z,7.80
2018-01-27T13:40:27.256Z,7.78
2018-01-27T13:41:54.456Z,7.75
2018-01-27T13:43:21.647Z,7.73
2018-01-27T13:44:49.031Z,7.72
2018-01-27T13:46:16.234Z,7.71
2018-01-27T13:47:43.620Z,7.70
2018-01-27T13:49:10.900Z,7.70
2018-01-27T13:50:38.101Z,7.70
2018-01-27T13:52:06.162Z,7.69
2018-01-27T13:53:32.308Z,7.66
2018-01-27T13:54:59.743Z,7.63
2018-01-27T13:56:26.995Z,7.60
2018-01-27T13:57:54.325Z,7.58
2018-01-27T13:59:21.757Z,7.56
2018-01-27T14:00:50.012Z,7.54
2018-01-27T14:02:17.161Z,7.54
2018-01-27T14:03:43.316Z,7.52
2018-01-27T14:05:11.756Z,7.52
2018-01-27T14:06:38.972Z,7.51
2018-01-27T14:08:05.275Z,7.50
2018-01-27T14:09:32.582Z,7.48
2018-01-27T14:11:00.771Z,7.46
2018-01-27T14:12:28.187Z,7.44
2018-01-27T14:13:54.511Z,7.42
2018-01-27T14:15:21.868Z,7.41
2018-01-27T14:16:50.189Z,7.40
2018-01-27T14:18:16.505Z,7.39
2018-01-27T14:19:43.764Z,7.38
2018-01-27T14:21:11.200Z,7.36
2018-01-27T14:22:39.499Z,7.36
2018-01-27T14:24:05.748Z,7.35
2018-01-27T14:25:32.977Z,7.36
2018-01-27T14:27:00.093Z,7.36
2018-01-27T14:28:27.416Z,7.35
2018-01-27T14:29:55.414Z,7.34
2018-01-27T14:31:21.729Z,7.34
2018-01-27T14:32:49.055Z,7.33
2018-01-27T14:34:16.518Z,7.33
2018-01-27T14:35:43.899Z,7.32
2018-01-27T14:37:11.151Z,7.32
2018-01-27T14:38:38.266Z,7.32
2018-01-27T14:40:06.370Z,7.30
2018-01-27T14:41:32.410Z,7.27
2018-01-27T14:43:00.733Z,7.25
2018-01-27T14:44:26.994Z,7.23
2018-01-27T14:45:54.424Z,7.22
2018-01-27T14:47:21.749Z,7.20
2018-01-27T14:48:50.150Z,7.20
2018-01-27T14:50:17.337Z,7.21
2018-01-27T14:51:44.655Z,7.22
2018-01-27T14:53:11.182Z,7.22
2018-01-27T14:54:39.250Z,7.22
2018-01-27T14:56:06.491Z,7.21
2018-01-27T14:57:32.822Z,7.20
2018-01-27T14:59:00.177Z,7.20
2018-01-27T15:00:27.201Z,7.18
2018-01-27T15:01:54.496Z,7.16
2018-01-27T15:03:22.587Z,7.12
2018-01-27T15:04:48.844Z,7.11
2018-01-27T15:06:17.125Z,7.09
2018-01-27T15:07:43.396Z,7.05
2018-01-27T15:09:10.758Z,7.03
2018-01-27T15:10:37.902Z,7.00
2018-01-27T15:12:04.939Z,6.99
2018-01-27T15:13:32.147Z,6.97
2018-01-27T15:14:59.403Z,6.96
2018-01-27T15:16:27.686Z,6.94
2018-01-27T15:17:53.664Z,6.91
2018-01-27T15:19:22.048Z,6.92
2018-01-27T15:20:48.404Z,6.92
2018-01-27T15:22:15.832Z,6.90
2018-01-27T15:23:44.253Z,6.88
2018-01-27T15:25:10.396Z,6.86
2018-01-27T15:26:37.762Z,6.85
2018-01-27T15:28:06.046Z,6.84
2018-01-27T15:29:32.312Z,6.83
2018-01-27T15:31:00.553Z,6.84
2018-01-27T15:32:26.959Z,6.83
2018-01-27T15:33:54.339Z,6.82
2018-01-27T15:35:21.659Z,6.82
2018-01-27T15:36:49.010Z,6.81
2018-01-27T15:38:17.406Z,6.81
2018-01-27T15:39:44.776Z,6.80
2018-01-27T15:41:11.081Z,6.80
2018-01-27T15:42:38.432Z,6.80
2018-01-27T15:44:05.532Z,6.81
2018-01-27T15:45:32.740Z,6.81
2018-01-27T15:47:00.072Z,6.80
2018-01-27T15:48:27.294Z,6.80
2018-01-27T15:49:55.606Z,6.80
2018-01-27T15:51:23.069Z,6.80
2018-01-27T15:52:49.337Z,6.81
2018-01-27T15:54:17.356Z,6.81
2018-01-27T15:55:43.357Z,6.81
2018-01-27T15:57:10.319Z,6.80
2018-01-27T15:58:38.361Z,6.80
2018-01-27T16:00:05.125Z,6.79
2018-01-27T16:01:31.270Z,6.78
2018-01-27T16:02:58.696Z,6.78
2018-01-27T16:04:26.946Z,6.80
2018-01-27T16:05:53.351Z,6.79
2018-01-27T16:07:21.583Z,6.78
2018-01-27T16:08:48.952Z,6.78
2018-01-27T16:10:16.187Z,6.78
2018-01-27T16:11:42.399Z,6.77
2018-01-27T16:13:09.742Z,6.76
2018-01-27T16:14:36.984Z,6.75
2018-01-27T16:16:04.319Z,6.73
2018-01-27T16:17:31.316Z,6.72
2018-01-27T16:18:58.558Z,6.72
2018-01-27T16:20:25.769Z,6.72
2018-01-27T16:21:53.093Z,6.73
2018-01-27T16:23:21.457Z,6.75
2018-01-27T16:24:47.688Z,6.76
2018-01-27T16:26:14.819Z,6.74
2018-01-27T16:27:43.069Z,6.71
2018-01-27T16:29:09.409Z,6.71
2018-01-27T16:30:36.485Z,6.72
2018-01-27T16:32:04.620Z,6.73
2018-01-27T16:33:30.369Z,6.74
2018-01-27T16:34:57.756Z,6.74
2018-01-27T16:36:25.584Z,6.75
2018-01-27T16:37:52.981Z,6.76
2018-01-27T16:39:20.251Z,6.78
2018-01-27T16:40:47.449Z,6.80
2018-01-27T16:42:14.645Z,6.81
2018-01-27T16:43:40.727Z,6.80
2018-01-27T16:45:09.038Z,6.80
2018-01-27T16:46:35.215Z,6.80
2018-01-27T16:48:03.351Z,6.78
2018-01-27T16:49:29.620Z,6.79
2018-01-27T16:50:57.582Z,6.78
2018-01-27T16:52:23.965Z,6.79
2018-01-27T16:53:51.228Z,6.78
2018-01-27T16:55:19.378Z,6.79
2018-01-27T16:56:46.729Z,6.79
2018-01-27T16:58:13.932Z,6.80
2018-01-27T16:59:41.206Z,6.81
2018-01-27T17:01:07.070Z,6.80
2018-01-27T17:02:35.320Z,6.79
2018-01-27T17:04:01.470Z,6.78
2018-01-27T17:05:28.539Z,6.77
2018-01-27T17:06:55.815Z,6.76
2018-01-27T17:08:24.123Z,6.76
2018-01-27T17:09:50.351Z,6.76
2018-01-27T17:11:17.687Z,6.77
2018-01-27T17:12:46.029Z,6.77
2018-01-27T17:14:12.332Z,6.75
2018-01-27T17:15:40.776Z,6.76
2018-01-27T17:17:07.884Z,6.76
2018-01-27T17:18:33.905Z,6.75
2018-01-27T17:20:00.906Z,6.75
2018-01-27T17:21:28.280Z,6.75
2018-01-27T17:22:55.670Z,6.74
2018-01-27T17:24:23.045Z,6.72
2018-01-27T17:25:50.320Z,6.72
2018-01-27T17:27:17.666Z,6.72
2018-01-27T17:28:44.939Z,6.70
2018-01-27T17:30:12.163Z,6.69
2018-01-27T17:31:40.383Z,6.71
2018-01-27T17:33:06.435Z,6.71
2018-01-27T17:34:33.646Z,6.69
2018-01-27T17:36:00.644Z,6.70
2018-01-27T17:37:28.062Z,6.70
2018-01-27T17:38:55.424Z,6.69
2018-01-27T17:40:23.748Z,6.68
2018-01-27T17:41:49.935Z,6.67
2018-01-27T17:43:17.273Z,6.66
2018-01-27T17:44:44.522Z,6.65
2018-01-27T17:46:11.750Z,6.64
2018-01-27T17:47:39.073Z,6.62
2018-01-27T17:49:07.218Z,6.61
2018-01-27T17:50:33.347Z,6.61
2018-01-27T17:52:01.648Z,6.60
2018-01-27T17:53:28.899Z,6.59
2018-01-27T17:54:55.174Z,6.58
2018-01-27T17:56:23.462Z,6.58
2018-01-27T17:57:49.778Z,6.58
2018-01-27T17:59:17.178Z,6.57
2018-01-27T18:00:44.370Z,6.58
2018-01-27T18:02:11.547Z,6.56
2018-01-27T18:03:38.894Z,6.55
2018-01-27T18:05:07.257Z,6.53
2018-01-27T18:06:34.322Z,6.53
2018-01-27T18:08:00.698Z,6.53
2018-01-27T18:09:29.052Z,6.53
2018-01-27T18:10:55.354Z,6.52
2018-01-27T18:12:23.623Z,6.52
2018-01-27T18:13:49.948Z,6.52
2018-01-27T18:15:17.201Z,6.52
2018-01-27T18:16:44.406Z,6.52
2018-01-27T18:18:12.768Z,6.52
2018-01-27T18:19:38.885Z,6.52
2018-01-27T18:21:06.131Z,6.52
2018-01-27T18:22:33.151Z,6.51
2018-01-27T18:24:00.225Z,6.51
2018-01-27T18:25:27.570Z,6.51
2018-01-27T18:26:54.943Z,6.50
2018-01-27T18:28:22.118Z,6.48
2018-01-27T18:29:50.440Z,6.46
2018-01-27T18:31:16.798Z,6.43
2018-01-27T18:32:43.964Z,6.44
2018-01-27T18:34:11.222Z,6.43
2018-01-27T18:35:39.541Z,6.43
2018-01-27T18:37:06.889Z,6.43
2018-01-27T18:38:33.219Z,6.43
2018-01-27T18:40:00.650Z,6.43
2018-01-27T18:41:29.058Z,6.42
2018-01-27T18:42:55.377Z,6.40
2018-01-27T18:44:23.730Z,6.39
2018-01-27T18:45:49.946Z,6.38
2018-01-27T18:47:18.211Z,6.38
2018-01-27T18:48:44.159Z,6.38
2018-01-27T18:50:11.071Z,6.38
2018-01-27T18:51:38.304Z,6.37
2018-01-27T18:53:05.489Z,6.38
2018-01-27T18:54:32.524Z,6.38
2018-01-27T18:55:59.828Z,6.38
2018-01-27T18:57:28.174Z,6.40
2018-01-27T18:58:54.369Z,6.40
2018-01-27T19:00:21.641Z,6.39
2018-01-27T19:01:48.923Z,6.40
2018-01-27T19:03:16.290Z,6.40
2018-01-27T19:04:44.442Z,6.40
2018-01-27T19:06:10.315Z,6.40
2018-01-27T19:07:37.700Z,6.41
2018-01-27T19:09:04.774Z,6.41
2018-01-27T19:10:31.756Z,6.41
2018-01-27T19:11:59.787Z,6.42
2018-01-27T19:13:25.965Z,6.42
2018-01-27T19:14:53.220Z,6.43
2018-01-27T19:16:21.497Z,6.43
2018-01-27T19:17:48.639Z,6.42
2018-01-27T19:19:14.599Z,6.42
2018-01-27T19:20:42.004Z,6.41